Main page
METAR-TAF:

METAR-TAF

Airports :

Lauro Kurtz Airport

Passo Fundo, Rio Grande do Sul, Brazil

latitude: 28-15S, longitude: 052-24W, elevation: 684 m

Current weather observation

The report was made 26 minutes ago, at 14:00 UTC
Wind 12 kt from the North
Temperature 23°C
Humidity 89%
Pressure 1011 hPa
Visibility 10 km or more
Few clouds at a height of 600 ft
Scattered clouds at a height of 900 ft
Broken clouds at a height of 3000 ft

METAR: SBPF 141400Z 01012KT 9999 FEW006 SCT009 BKN030 23/21 Q1011

Time: 12:26 (14:26 UTC)


TAF: missing

Weather observations and forecasts of more than 4000 airports (METAR and TAF reports).

The available stations are represented by yellow and red dots on the map.

Hover mouse over dot to see the name of the station.

Then click to see weather observations and forecasts.

To change the map : click on the green buttons with a black cross to zoom in, on the green button with a dash to zoom out, or on the green arrows for adjacent maps.


METAR-TAF: